Time;durP1;ratioP1;P1;durP2;ratioP2;P2;SDS_P1;SDS_P2;PMS_P1;PMS_P2;Temp;Humidity;BMP_temperature;BMP_pressure;BME280_temperature;BME280_humidity;BME280_pressure;Samples;Min_cycle;Max_cycle;Signal;HPM_P1;HPM_P2
2023/12/04 00:00:16;;;;;;;24.70;18.83;;;;;;;;;;6244871;22;20210;-86
2023/12/04 00:02:45;;;;;;;23.20;17.83;;;;;;;;;;6247622;22;20204;-85
2023/12/04 00:05:13;;;;;;;19.67;16.73;;;;;;;;;;6247769;22;20204;-86
2023/12/04 00:07:43;;;;;;;23.47;20.23;;;;;;;;;;6247937;22;20175;-85
2023/12/04 00:10:12;;;;;;;18.80;12.03;;;;;;;;;;6247954;22;20185;-85
2023/12/04 00:12:40;;;;;;;22.23;18.57;;;;;;;;;;6247825;22;20173;-85
2023/12/04 00:15:09;;;;;;;23.03;17.93;;;;;;;;;;6248369;22;20192;-85
2023/12/04 00:17:39;;;;;;;19.50;13.83;;;;;;;;;;6248545;22;20173;-85
2023/12/04 00:20:09;;;;;;;20.77;17.10;;;;;;;;;;6248168;22;20174;-86
2023/12/04 00:22:37;;;;;;;22.60;17.03;;;;;;;;;;6248212;22;20189;-85
2023/12/04 00:25:08;;;;;;;20.77;15.03;;;;;;;;;;6247856;22;20170;-85
2023/12/04 00:27:36;;;;;;;17.27;12.00;;;;;;;;;;6248487;22;20171;-86
2023/12/04 00:30:06;;;;;;;20.40;16.83;;;;;;;;;;6247523;22;20183;-85
2023/12/04 00:32:34;;;;;;;17.57;11.90;;;;;;;;;;6245091;22;20174;-86
2023/12/04 00:35:03;;;;;;;20.83;16.17;;;;;;;;;;6245152;22;20220;-86
2023/12/04 00:37:31;;;;;;;17.23;13.23;;;;;;;;;;6244811;22;20178;-86
2023/12/04 00:39:59;;;;;;;20.37;17.43;;;;;;;;;;6244752;22;20208;-86
2023/12/04 00:42:29;;;;;;;18.57;12.93;;;;;;;;;;6245238;22;20258;-86
2023/12/04 00:44:58;;;;;;;17.07;12.53;;;;;;;;;;6245124;22;20162;-86
2023/12/04 00:47:27;;;;;;;15.17;11.70;;;;;;;;;;6244817;22;20186;-86
2023/12/04 00:49:55;;;;;;;19.87;17.30;;;;;;;;;;6244415;22;20171;-86
2023/12/04 00:52:24;;;;;;;16.73;14.93;;;;;;;;;;6245059;22;20176;-86
2023/12/04 00:54:53;;;;;;;21.43;15.27;;;;;;;;;;6245290;22;20201;-86
2023/12/04 00:57:22;;;;;;;18.07;13.20;;;;;;;;;;6245103;22;20236;-86
2023/12/04 00:59:51;;;;;;;21.33;17.80;;;;;;;;;;6244655;22;20191;-86
2023/12/04 01:02:20;;;;;;;16.20;13.70;;;;;;;;;;6244693;22;20169;-86
2023/12/04 01:04:48;;;;;;;18.93;13.53;;;;;;;;;;6245126;22;20179;-86
2023/12/04 01:07:17;;;;;;;22.67;18.43;;;;;;;;;;6244997;22;20174;-86
2023/12/04 01:09:45;;;;;;;23.40;16.10;;;;;;;;;;6244623;22;20178;-86
2023/12/04 01:12:14;;;;;;;14.93;10.47;;;;;;;;;;6244717;22;20166;-86
2023/12/04 01:14:42;;;;;;;21.77;17.70;;;;;;;;;;6245771;22;20257;-86
2023/12/04 01:17:12;;;;;;;21.47;17.07;;;;;;;;;;6244950;22;20182;-86
2023/12/04 01:19:40;;;;;;;22.93;16.30;;;;;;;;;;6244802;22;20195;-86
2023/12/04 01:22:09;;;;;;;22.57;17.47;;;;;;;;;;6244989;22;20178;-86
2023/12/04 01:24:37;;;;;;;19.50;12.43;;;;;;;;;;6244860;22;20180;-86
2023/12/04 01:27:06;;;;;;;22.67;19.03;;;;;;;;;;6245365;22;20202;-86
2023/12/04 01:29:34;;;;;;;19.83;15.20;;;;;;;;;;6244365;22;20264;-86
2023/12/04 01:32:03;;;;;;;17.77;13.23;;;;;;;;;;6244870;22;20179;-86
2023/12/04 01:34:33;;;;;;;21.33;17.30;;;;;;;;;;6244551;22;20201;-86
2023/12/04 01:37:01;;;;;;;20.37;15.30;;;;;;;;;;6244931;22;20208;-86
2023/12/04 01:39:30;;;;;;;20.60;14.00;;;;;;;;;;6244388;22;20294;-86
2023/12/04 01:41:59;;;;;;;17.00;15.13;;;;;;;;;;6244291;22;20184;-86
2023/12/04 01:44:27;;;;;;;18.60;14.97;;;;;;;;;;6244580;22;20216;-86
2023/12/04 01:46:57;;;;;;;20.37;15.73;;;;;;;;;;6245007;22;20173;-86
2023/12/04 01:49:25;;;;;;;22.03;16.47;;;;;;;;;;6244181;22;20265;-86
2023/12/04 01:51:56;;;;;;;20.27;15.43;;;;;;;;;;6244542;22;20174;-86
2023/12/04 01:54:25;;;;;;;20.30;14.93;;;;;;;;;;6244891;22;20182;-86
2023/12/04 01:56:53;;;;;;;15.93;11.90;;;;;;;;;;6244165;22;20180;-86
2023/12/04 01:59:24;;;;;;;17.87;15.00;;;;;;;;;;6244299;22;20198;-86
2023/12/04 02:01:53;;;;;;;19.17;14.53;;;;;;;;;;6244316;22;20166;-86
2023/12/04 02:04:22;;;;;;;20.33;12.80;;;;;;;;;;6244914;22;20184;-86
2023/12/04 02:06:50;;;;;;;23.20;15.80;;;;;;;;;;6244247;22;20179;-86
2023/12/04 02:09:20;;;;;;;15.43;12.03;;;;;;;;;;6244144;22;20410;-86
2023/12/04 02:11:49;;;;;;;18.87;15.03;;;;;;;;;;6244169;22;20178;-86
2023/12/04 02:14:17;;;;;;;19.43;14.30;;;;;;;;;;6244798;22;20170;-86
2023/12/04 02:16:47;;;;;;;15.17;11.27;;;;;;;;;;6244122;22;20204;-86
2023/12/04 02:19:15;;;;;;;18.60;14.40;;;;;;;;;;6243998;22;20178;-86
2023/12/04 02:21:44;;;;;;;18.37;13.10;;;;;;;;;;6243974;22;20171;-86
2023/12/04 02:24:14;;;;;;;16.57;11.97;;;;;;;;;;6244419;22;20180;-86
2023/12/04 02:26:48;;;;;;;12.77;9.57;;;;;;;;;;6243655;22;20179;-86
2023/12/04 02:29:31;;;;;;;8.33;6.30;;;;;;;;;;6243546;23;20204;-85
2023/12/04 02:32:02;;;;;;;9.63;7.10;;;;;;;;;;6246735;23;20186;-85
2023/12/04 02:34:34;;;;;;;3.33;3.03;;;;;;;;;;6247622;23;20430;-85
2023/12/04 02:37:03;;;;;;;13.67;11.20;;;;;;;;;;6247318;23;20195;-85
2023/12/04 02:39:33;;;;;;;16.97;11.00;;;;;;;;;;6246807;22;20232;-85
2023/12/04 02:42:01;;;;;;;12.53;9.13;;;;;;;;;;6247348;22;20170;-85
2023/12/04 02:44:30;;;;;;;12.70;9.50;;;;;;;;;;6247602;23;20180;-85
2023/12/04 02:46:58;;;;;;;14.70;11.60;;;;;;;;;;6246758;23;20175;-85
2023/12/04 02:49:27;;;;;;;17.20;14.10;;;;;;;;;;6247642;22;20174;-85
2023/12/04 02:51:57;;;;;;;17.30;15.53;;;;;;;;;;6247180;22;20171;-85
2023/12/04 02:54:25;;;;;;;16.93;13.87;;;;;;;;;;6247756;22;20262;-85
2023/12/04 02:56:55;;;;;;;16.73;13.50;;;;;;;;;;6247219;22;20201;-85
2023/12/04 02:59:24;;;;;;;17.00;14.57;;;;;;;;;;6247066;22;20169;-85
2023/12/04 03:01:52;;;;;;;11.33;8.13;;;;;;;;;;6247057;22;20185;-86
2023/12/04 03:04:21;;;;;;;14.70;12.83;;;;;;;;;;6244451;23;20172;-86
2023/12/04 03:06:49;;;;;;;14.83;10.90;;;;;;;;;;6244046;22;20226;-86
2023/12/04 03:09:18;;;;;;;10.03;7.23;;;;;;;;;;6243417;22;20237;-86
2023/12/04 03:11:46;;;;;;;17.27;12.83;;;;;;;;;;6243841;23;20169;-86
2023/12/04 03:14:16;;;;;;;14.37;9.83;;;;;;;;;;6244647;22;20182;-86
2023/12/04 03:16:44;;;;;;;14.30;11.73;;;;;;;;;;6243616;23;20249;-86
2023/12/04 03:19:13;;;;;;;13.70;10.93;;;;;;;;;;6242904;22;20234;-86
2023/12/04 03:21:41;;;;;;;16.67;11.87;;;;;;;;;;6243862;22;20180;-86
2023/12/04 03:24:10;;;;;;;13.43;9.87;;;;;;;;;;6243807;22;20178;-86
2023/12/04 03:26:39;;;;;;;15.83;12.50;;;;;;;;;;6244109;23;20248;-86
2023/12/04 03:29:07;;;;;;;13.50;9.37;;;;;;;;;;6243474;23;20173;-86
2023/12/04 03:31:37;;;;;;;15.03;13.43;;;;;;;;;;6243850;23;20170;-86
2023/12/04 03:34:05;;;;;;;15.20;10.67;;;;;;;;;;6243882;22;20193;-86
2023/12/04 03:36:34;;;;;;;14.60;9.67;;;;;;;;;;6244183;22;20474;-86
2023/12/04 03:39:03;;;;;;;15.57;12.43;;;;;;;;;;6243430;23;20272;-86
2023/12/04 03:41:31;;;;;;;13.60;9.43;;;;;;;;;;6243518;22;20187;-86
2023/12/04 03:43:59;;;;;;;15.30;12.40;;;;;;;;;;6243736;23;20200;-86
2023/12/04 03:46:28;;;;;;;13.57;12.17;;;;;;;;;;6243365;22;20164;-86
2023/12/04 03:48:58;;;;;;;15.00;10.47;;;;;;;;;;6243457;22;20275;-86
2023/12/04 03:51:26;;;;;;;13.63;10.83;;;;;;;;;;6243718;22;20493;-86
2023/12/04 03:53:55;;;;;;;4.97;4.50;;;;;;;;;;6243684;22;20221;-86
2023/12/04 03:56:23;;;;;;;11.93;10.50;;;;;;;;;;6243846;23;20190;-86
2023/12/04 03:58:52;;;;;;;13.03;9.93;;;;;;;;;;6243095;22;20251;-86
2023/12/04 04:01:21;;;;;;;11.90;8.90;;;;;;;;;;6245367;23;20170;-86
2023/12/04 04:03:49;;;;;;;8.73;7.00;;;;;;;;;;6245272;23;20206;-86
2023/12/04 04:06:19;;;;;;;11.77;10.47;;;;;;;;;;6244957;23;20175;-86
2023/12/04 04:08:47;;;;;;;11.70;9.93;;;;;;;;;;6244451;22;20173;-86
2023/12/04 04:11:16;;;;;;;7.57;6.60;;;;;;;;;;6245180;23;20176;-86
2023/12/04 04:13:44;;;;;;;14.37;10.57;;;;;;;;;;6245200;23;20174;-86
2023/12/04 04:16:16;;;;;;;8.60;6.67;;;;;;;;;;6245164;22;20248;-86
2023/12/04 04:18:44;;;;;;;9.47;7.90;;;;;;;;;;6244446;23;20175;-86
2023/12/04 04:21:13;;;;;;;13.53;10.07;;;;;;;;;;6244815;23;20243;-86
2023/12/04 04:23:43;;;;;;;6.07;5.07;;;;;;;;;;6245190;22;20187;-86
2023/12/04 04:26:11;;;;;;;7.60;6.43;;;;;;;;;;6244896;23;20168;-86
2023/12/04 04:28:40;;;;;;;9.43;6.70;;;;;;;;;;6244076;23;20171;-86
2023/12/04 04:31:08;;;;;;;7.57;5.03;;;;;;;;;;6244942;23;20176;-86
2023/12/04 04:33:37;;;;;;;6.47;4.17;;;;;;;;;;6244846;23;20192;-86
2023/12/04 04:36:06;;;;;;;3.83;3.53;;;;;;;;;;6244996;23;20186;-86
2023/12/04 04:38:34;;;;;;;6.83;5.87;;;;;;;;;;6244197;23;20208;-86
2023/12/04 04:41:04;;;;;;;5.37;4.93;;;;;;;;;;6244468;23;20239;-86
2023/12/04 04:43:33;;;;;;;3.53;3.23;;;;;;;;;;6244765;23;20199;-86
2023/12/04 04:46:01;;;;;;;8.67;4.77;;;;;;;;;;6244820;23;20238;-87
2023/12/04 04:48:30;;;;;;;10.07;7.57;;;;;;;;;;6244547;23;20270;-86
2023/12/04 04:50:58;;;;;;;3.33;3.03;;;;;;;;;;6244588;23;20172;-86
2023/12/04 04:53:27;;;;;;;10.37;8.13;;;;;;;;;;6245249;23;20230;-86
2023/12/04 04:55:55;;;;;;;11.80;8.17;;;;;;;;;;6244884;23;20219;-86
2023/12/04 04:58:25;;;;;;;13.23;10.43;;;;;;;;;;6244248;23;20212;-86
2023/12/04 05:00:54;;;;;;;5.80;5.17;;;;;;;;;;6244493;22;20188;-86
2023/12/04 05:03:22;;;;;;;11.87;9.27;;;;;;;;;;6244678;23;20180;-86
2023/12/04 05:05:52;;;;;;;14.07;11.47;;;;;;;;;;6244763;22;20181;-86
2023/12/04 05:08:21;;;;;;;13.10;10.93;;;;;;;;;;6244305;22;20238;-86
2023/12/04 05:10:49;;;;;;;10.17;7.90;;;;;;;;;;6243638;22;20233;-86
2023/12/04 05:13:18;;;;;;;13.97;8.80;;;;;;;;;;6244277;23;20177;-86
2023/12/04 05:15:48;;;;;;;12.70;8.57;;;;;;;;;;6244990;23;20204;-86
2023/12/04 05:18:16;;;;;;;10.53;7.40;;;;;;;;;;6244272;23;20195;-86
2023/12/04 05:20:45;;;;;;;15.73;9.47;;;;;;;;;;6244239;23;20179;-86
2023/12/04 05:23:13;;;;;;;8.07;6.10;;;;;;;;;;6244977;23;20179;-86
2023/12/04 05:25:41;;;;;;;8.23;6.50;;;;;;;;;;6244007;23;20170;-86
2023/12/04 05:28:17;;;;;;;9.33;6.70;;;;;;;;;;6244210;23;20238;-86
2023/12/04 05:30:48;;;;;;;14.70;5.80;;;;;;;;;;6244250;23;20322;-86
2023/12/04 05:33:16;;;;;;;5.47;4.13;;;;;;;;;;6244043;23;20229;-86
2023/12/04 05:35:45;;;;;;;6.57;4.30;;;;;;;;;;6243940;23;20230;-86
2023/12/04 05:38:13;;;;;;;3.77;2.10;;;;;;;;;;6243964;23;20297;-86
2023/12/04 05:40:42;;;;;;;11.07;7.97;;;;;;;;;;6244261;23;20171;-86
2023/12/04 05:43:10;;;;;;;8.63;7.17;;;;;;;;;;6244592;23;20172;-86
2023/12/04 05:45:40;;;;;;;10.13;8.00;;;;;;;;;;6244254;23;20168;-86
2023/12/04 05:48:10;;;;;;;13.70;9.70;;;;;;;;;;6244238;23;20172;-86
2023/12/04 05:50:38;;;;;;;11.77;10.30;;;;;;;;;;6243955;23;20179;-86
2023/12/04 05:53:08;;;;;;;9.90;6.53;;;;;;;;;;6244568;22;20190;-86
2023/12/04 05:55:36;;;;;;;7.27;6.57;;;;;;;;;;6244588;23;20353;-86
2023/12/04 05:58:05;;;;;;;9.77;8.03;;;;;;;;;;6244101;23;20195;-86
2023/12/04 06:00:33;;;;;;;3.37;3.10;;;;;;;;;;6245017;23;20184;-86
2023/12/04 06:03:02;;;;;;;2.00;1.90;;;;;;;;;;6244803;23;20176;-86
2023/12/04 06:05:32;;;;;;;10.70;5.53;;;;;;;;;;6245205;23;20408;-86
2023/12/04 06:08:00;;;;;;;7.30;4.30;;;;;;;;;;6243376;23;20191;-86
2023/12/04 06:10:29;;;;;;;3.60;3.30;;;;;;;;;;6243888;23;20270;-86
2023/12/04 06:12:56;;;;;;;3.57;3.37;;;;;;;;;;6244737;23;20175;-86
2023/12/04 06:15:25;;;;;;;7.83;4.77;;;;;;;;;;6244741;23;20183;-86
2023/12/04 06:17:53;;;;;;;3.10;2.90;;;;;;;;;;6243257;23;20204;-86
2023/12/04 06:20:21;;;;;;;5.33;3.50;;;;;;;;;;6243588;23;20180;-86
2023/12/04 06:22:52;;;;;;;5.10;4.67;;;;;;;;;;6244242;23;20172;-86
2023/12/04 06:25:21;;;;;;;2.97;2.73;;;;;;;;;;6244593;23;20222;-87
2023/12/04 06:27:51;;;;;;;4.00;2.97;;;;;;;;;;6243607;23;20173;-87
2023/12/04 06:30:20;;;;;;;4.07;3.60;;;;;;;;;;6244596;23;20260;-87
2023/12/04 06:32:49;;;;;;;11.07;7.87;;;;;;;;;;6244743;23;20176;-87
2023/12/04 06:35:19;;;;;;;6.50;5.10;;;;;;;;;;6244990;23;20198;-87
2023/12/04 06:37:49;;;;;;;8.50;6.30;;;;;;;;;;6243635;23;20199;-86
2023/12/04 06:40:20;;;;;;;5.33;4.70;;;;;;;;;;6244319;23;20266;-87
2023/12/04 06:42:49;;;;;;;6.73;5.97;;;;;;;;;;6245304;23;20207;-87
2023/12/04 06:45:18;;;;;;;10.70;8.17;;;;;;;;;;6244988;23;20188;-86
2023/12/04 06:47:47;;;;;;;5.97;5.13;;;;;;;;;;6244366;23;20192;-86
2023/12/04 06:50:16;;;;;;;4.47;2.97;;;;;;;;;;6244988;23;20267;-87
2023/12/04 06:52:44;;;;;;;4.20;3.50;;;;;;;;;;6245344;23;20183;-87
2023/12/04 06:55:13;;;;;;;6.10;3.70;;;;;;;;;;6245221;23;20201;-87
2023/12/04 06:57:43;;;;;;;3.70;3.40;;;;;;;;;;6244160;23;20195;-87
2023/12/04 07:00:14;;;;;;;10.57;4.97;;;;;;;;;;6244650;22;20186;-87
2023/12/04 07:02:50;;;;;;;8.23;6.50;;;;;;;;;;6248291;23;20216;-87
2023/12/04 07:05:19;;;;;;;7.80;4.47;;;;;;;;;;6248190;23;20255;-87
2023/12/04 07:07:48;;;;;;;9.90;5.77;;;;;;;;;;6247424;23;20164;-87
2023/12/04 07:10:16;;;;;;;10.63;8.83;;;;;;;;;;6245243;23;20184;-87
2023/12/04 07:12:46;;;;;;;6.63;5.83;;;;;;;;;;6245103;23;20176;-87
2023/12/04 07:15:17;;;;;;;8.93;7.30;;;;;;;;;;6247045;23;20172;-87
2023/12/04 07:17:46;;;;;;;7.37;5.57;;;;;;;;;;6244610;23;20230;-87
2023/12/04 07:20:15;;;;;;;9.83;6.27;;;;;;;;;;6248181;23;20226;-86
2023/12/04 07:22:50;;;;;;;7.63;5.03;;;;;;;;;;6246229;23;20199;-88
2023/12/04 07:25:22;;;;;;;7.63;6.70;;;;;;;;;;6249512;23;20222;-86
2023/12/04 07:27:53;;;;;;;11.13;8.23;;;;;;;;;;6245998;23;20236;-87
2023/12/04 07:30:21;;;;;;;8.17;6.53;;;;;;;;;;6243976;23;20203;-87
2023/12/04 07:32:50;;;;;;;4.70;2.93;;;;;;;;;;6246578;23;20176;-86
2023/12/04 07:35:19;;;;;;;10.37;8.27;;;;;;;;;;6246308;23;20194;-86
2023/12/04 07:37:47;;;;;;;11.23;8.97;;;;;;;;;;6246120;23;20202;-85
2023/12/04 07:40:19;;;;;;;8.03;5.63;;;;;;;;;;6249430;23;20182;-85
2023/12/04 07:42:52;;;;;;;11.77;8.40;;;;;;;;;;6249235;22;20180;-86
2023/12/04 07:45:27;;;;;;;13.17;9.27;;;;;;;;;;6249666;23;20298;-86
2023/12/04 07:47:56;;;;;;;8.07;5.27;;;;;;;;;;6249520;22;20167;-86
2023/12/04 07:50:25;;;;;;;7.53;5.03;;;;;;;;;;6248105;23;20234;-88
2023/12/04 07:52:55;;;;;;;9.07;5.33;;;;;;;;;;6247913;23;20187;-87
2023/12/04 07:55:23;;;;;;;8.20;6.57;;;;;;;;;;6246397;23;20205;-87
2023/12/04 07:57:52;;;;;;;10.83;7.73;;;;;;;;;;6245417;23;20212;-87
2023/12/04 08:00:22;;;;;;;12.47;9.13;;;;;;;;;;6246181;23;20202;-87
2023/12/04 08:02:52;;;;;;;9.63;6.77;;;;;;;;;;6245728;23;20167;-87
2023/12/04 08:05:27;;;;;;;9.40;7.83;;;;;;;;;;6245689;23;20173;-86
2023/12/04 08:07:57;;;;;;;10.70;8.20;;;;;;;;;;6245643;22;20222;-86
2023/12/04 08:10:26;;;;;;;8.90;7.73;;;;;;;;;;6245832;23;20179;-86
2023/12/04 08:12:55;;;;;;;1.10;1.10;;;;;;;;;;6246432;23;20173;-87
2023/12/04 08:15:24;;;;;;;7.50;2.73;;;;;;;;;;6246186;23;20227;-87
2023/12/04 08:17:57;;;;;;;2.73;2.50;;;;;;;;;;6245294;23;20263;-87
2023/12/04 08:20:26;;;;;;;5.10;3.90;;;;;;;;;;6245933;23;20180;-87
2023/12/04 08:23:07;;;;;;;4.03;2.77;;;;;;;;;;6245958;23;20195;-87
2023/12/04 08:25:37;;;;;;;2.40;2.13;;;;;;;;;;6245745;23;20169;-86
2023/12/04 08:28:08;;;;;;;5.00;3.83;;;;;;;;;;6245512;23;20185;-87
2023/12/04 08:30:37;;;;;;;6.93;5.83;;;;;;;;;;6246106;23;20184;-86
2023/12/04 08:33:07;;;;;;;2.80;2.60;;;;;;;;;;6246065;23;20204;-86
2023/12/04 08:35:36;;;;;;;1.73;1.63;;;;;;;;;;6245339;23;20165;-86
2023/12/04 08:38:05;;;;;;;10.83;8.30;;;;;;;;;;6245199;23;20180;-86
2023/12/04 08:40:34;;;;;;;8.93;6.70;;;;;;;;;;6245958;23;20232;-86
2023/12/04 08:43:03;;;;;;;2.83;2.50;;;;;;;;;;6246253;23;20180;-87
2023/12/04 08:45:33;;;;;;;4.33;4.20;;;;;;;;;;6245602;22;20262;-88
2023/12/04 08:48:02;;;;;;;1.77;1.70;;;;;;;;;;6244462;23;20170;-87
2023/12/04 08:50:34;;;;;;;0.80;0.80;;;;;;;;;;6245083;23;20228;-88
2023/12/04 08:53:03;;;;;;;8.90;7.97;;;;;;;;;;6245894;23;20189;-83
2023/12/04 08:55:35;;;;;;;4.80;4.10;;;;;;;;;;6245717;23;20251;-87
2023/12/04 08:58:05;;;;;;;5.43;4.70;;;;;;;;;;6244209;23;20255;-87
2023/12/04 09:00:43;;;;;;;9.10;5.23;;;;;;;;;;6244760;23;20216;-88
2023/12/04 09:03:12;;;;;;;7.27;6.20;;;;;;;;;;6244820;23;20187;-87
2023/12/04 09:05:57;;;;;;;1.60;1.57;;;;;;;;;;6244873;23;20176;-88
2023/12/04 09:08:27;;;;;;;3.80;3.40;;;;;;;;;;6244719;23;20258;-88
2023/12/04 09:11:09;;;;;;;1.67;1.60;;;;;;;;;;6245194;22;20175;-87
2023/12/04 09:13:51;;;;;;;1.63;1.53;;;;;;;;;;6245950;23;20175;-87
2023/12/04 09:16:19;;;;;;;5.27;3.93;;;;;;;;;;6244002;23;20172;-87
2023/12/04 09:18:48;;;;;;;2.03;1.07;;;;;;;;;;6243775;23;20200;-87
2023/12/04 09:24:46;;;;;;;3.47;3.03;;;;;;;;;;6194895;22;20189;-87
2023/12/04 09:27:19;;;;;;;5.83;4.87;;;;;;;;;;6243488;22;20364;-86
2023/12/04 09:29:54;;;;;;;5.20;2.50;;;;;;;;;;6244586;23;20242;-87
2023/12/04 09:32:26;;;;;;;4.80;3.87;;;;;;;;;;6244561;23;20268;-87
2023/12/04 09:34:55;;;;;;;2.90;2.67;;;;;;;;;;6244320;23;20208;-87
2023/12/04 09:37:24;;;;;;;3.97;2.83;;;;;;;;;;6243694;23;20204;-86
2023/12/04 09:39:56;;;;;;;1.83;1.73;;;;;;;;;;6244729;23;20258;-87
2023/12/04 09:42:24;;;;;;;2.97;2.43;;;;;;;;;;6245727;23;20177;-86
2023/12/04 09:44:54;;;;;;;2.33;2.00;;;;;;;;;;6245028;23;20204;-87
2023/12/04 09:47:23;;;;;;;4.13;2.97;;;;;;;;;;6243834;23;20177;-87
2023/12/04 09:49:53;;;;;;;2.47;2.33;;;;;;;;;;6244615;23;20166;-87
2023/12/04 09:52:23;;;;;;;5.20;3.03;;;;;;;;;;6245672;23;20232;-87
2023/12/04 09:54:52;;;;;;;3.17;2.23;;;;;;;;;;6245449;23;20218;-87
2023/12/04 09:57:25;;;;;;;1.43;1.37;;;;;;;;;;6245412;22;20232;-87
2023/12/04 09:59:54;;;;;;;6.77;4.53;;;;;;;;;;6247959;23;20181;-87
2023/12/04 10:02:26;;;;;;;6.93;6.30;;;;;;;;;;6248831;23;20361;-88
2023/12/04 10:04:55;;;;;;;3.43;3.13;;;;;;;;;;6248211;23;20185;-88
2023/12/04 10:07:33;;;;;;;6.00;4.13;;;;;;;;;;6245793;23;20215;-88
2023/12/04 10:10:05;;;;;;;3.07;2.47;;;;;;;;;;6247967;23;20175;-87
2023/12/04 10:12:45;;;;;;;3.53;2.63;;;;;;;;;;6245290;23;20394;-87
2023/12/04 10:15:14;;;;;;;5.03;3.10;;;;;;;;;;6245094;23;20174;-86
2023/12/04 10:17:49;;;;;;;4.63;3.20;;;;;;;;;;6244679;22;20195;-88
2023/12/04 10:20:18;;;;;;;5.30;4.83;;;;;;;;;;6242701;23;20192;-87
2023/12/04 10:22:54;;;;;;;3.83;3.30;;;;;;;;;;6244185;23;20177;-88
2023/12/04 10:25:29;;;;;;;2.60;2.10;;;;;;;;;;6242073;23;20181;-88
2023/12/04 10:28:15;;;;;;;4.10;2.37;;;;;;;;;;6243591;23;20174;-87
2023/12/04 10:30:44;;;;;;;2.83;2.57;;;;;;;;;;6242782;23;20181;-87
2023/12/04 10:33:14;;;;;;;1.17;1.17;;;;;;;;;;6243229;23;20200;-87
2023/12/04 10:35:44;;;;;;;2.90;1.67;;;;;;;;;;6244227;22;20174;-87
2023/12/04 10:38:31;;;;;;;3.30;3.00;;;;;;;;;;6246144;23;20217;-87
2023/12/04 10:41:13;;;;;;;2.27;2.07;;;;;;;;;;6244708;22;20189;-86
2023/12/04 10:43:49;;;;;;;4.40;2.97;;;;;;;;;;6244752;23;20177;-87
2023/12/04 10:46:31;;;;;;;2.13;2.03;;;;;;;;;;6244192;23;20186;-88
2023/12/04 10:49:00;;;;;;;4.50;3.67;;;;;;;;;;6243439;23;20174;-87
2023/12/04 10:51:34;;;;;;;4.33;3.83;;;;;;;;;;6243156;23;20184;-86
2023/12/04 10:54:05;;;;;;;2.83;2.63;;;;;;;;;;6245557;23;20170;-88
2023/12/04 10:56:39;;;;;;;2.50;2.30;;;;;;;;;;6245170;22;20201;-87
2023/12/04 10:59:15;;;;;;;4.40;4.00;;;;;;;;;;6246120;23;20248;-88
2023/12/04 11:01:50;;;;;;;4.13;3.00;;;;;;;;;;6244718;23;20161;-86
2023/12/04 11:04:24;;;;;;;12.00;4.17;;;;;;;;;;6244770;23;20247;-87
2023/12/04 11:06:56;;;;;;;4.10;3.43;;;;;;;;;;6241304;23;20284;-81
2023/12/04 11:09:29;;;;;;;3.60;2.20;;;;;;;;;;6242736;23;20448;-82
2023/12/04 11:12:01;;;;;;;6.17;4.73;;;;;;;;;;6244881;23;20181;-80
2023/12/04 11:14:38;;;;;;;4.23;3.90;;;;;;;;;;6244325;23;20238;-82
2023/12/04 11:17:11;;;;;;;2.40;2.20;;;;;;;;;;6243168;23;20179;-81
2023/12/04 11:19:45;;;;;;;2.53;1.73;;;;;;;;;;6249181;23;20205;-85
2023/12/04 11:22:17;;;;;;;3.13;2.93;;;;;;;;;;6249101;23;20201;-85
2023/12/04 11:24:49;;;;;;;7.07;5.30;;;;;;;;;;6247511;22;20174;-86
2023/12/04 11:27:19;;;;;;;2.97;2.77;;;;;;;;;;6245895;23;20272;-85
2023/12/04 11:29:52;;;;;;;4.47;4.07;;;;;;;;;;6246146;23;20164;-85
2023/12/04 11:32:45;;;;;;;2.97;2.67;;;;;;;;;;6245468;23;20185;-85
2023/12/04 11:35:15;;;;;;;3.63;3.33;;;;;;;;;;6246314;23;20170;-84
2023/12/04 11:37:44;;;;;;;4.87;3.30;;;;;;;;;;6244688;23;20185;-84
2023/12/04 11:40:14;;;;;;;2.23;2.13;;;;;;;;;;6242702;23;20212;-85
2023/12/04 11:42:43;;;;;;;5.43;4.97;;;;;;;;;;6243140;23;20177;-87
2023/12/04 11:45:20;;;;;;;4.67;4.23;;;;;;;;;;6248729;22;20174;-86
2023/12/04 11:47:52;;;;;;;3.10;2.33;;;;;;;;;;6248557;23;20243;-86
2023/12/04 11:50:21;;;;;;;8.13;4.10;;;;;;;;;;6245835;23;20249;-87
2023/12/04 11:52:53;;;;;;;4.80;3.80;;;;;;;;;;6244672;23;20228;-86
2023/12/04 11:55:22;;;;;;;4.13;3.40;;;;;;;;;;6243811;23;20180;-87
2023/12/04 11:57:57;;;;;;;6.90;4.60;;;;;;;;;;6243601;23;20169;-86
2023/12/04 12:00:28;;;;;;;4.93;4.43;;;;;;;;;;6244049;23;20193;-86
2023/12/04 12:03:06;;;;;;;4.57;4.13;;;;;;;;;;6243321;22;20194;-85
2023/12/04 12:05:53;;;;;;;7.43;5.90;;;;;;;;;;6242645;23;20173;-86
2023/12/04 12:08:55;;;;;;;6.07;4.93;;;;;;;;;;6245603;23;20195;-84
2023/12/04 12:11:26;;;;;;;5.60;5.00;;;;;;;;;;6241963;23;20189;-86
2023/12/04 12:13:56;;;;;;;1.80;1.67;;;;;;;;;;6241347;23;20216;-86
2023/12/04 12:16:30;;;;;;;2.53;2.33;;;;;;;;;;6240837;23;20227;-85
2023/12/04 12:19:06;;;;;;;7.00;5.70;;;;;;;;;;6243251;23;20198;-85
2023/12/04 12:21:41;;;;;;;6.10;4.60;;;;;;;;;;6241547;23;20306;-85
2023/12/04 12:24:13;;;;;;;6.43;4.03;;;;;;;;;;6242771;23;20168;-86
2023/12/04 12:26:53;;;;;;;5.63;4.37;;;;;;;;;;6241779;23;20212;-86
2023/12/04 12:29:24;;;;;;;5.00;4.23;;;;;;;;;;6240752;23;20183;-85
2023/12/04 12:31:54;;;;;;;2.20;1.73;;;;;;;;;;6245004;23;20222;-83
2023/12/04 12:34:23;;;;;;;3.57;3.23;;;;;;;;;;6241009;23;20200;-85
2023/12/04 12:36:58;;;;;;;2.20;1.90;;;;;;;;;;6241076;23;20178;-85
2023/12/04 12:39:32;;;;;;;4.87;4.00;;;;;;;;;;6241606;23;20201;-85
2023/12/04 12:42:04;;;;;;;4.83;4.27;;;;;;;;;;6240916;23;20208;-86
2023/12/04 12:44:42;;;;;;;6.53;4.50;;;;;;;;;;6242054;23;20227;-85
2023/12/04 12:47:16;;;;;;;6.53;5.63;;;;;;;;;;6242534;23;20169;-84
2023/12/04 12:49:45;;;;;;;3.00;2.80;;;;;;;;;;6243563;23;20227;-84
2023/12/04 12:52:15;;;;;;;2.10;2.00;;;;;;;;;;6242222;23;20178;-84
2023/12/04 12:54:46;;;;;;;8.10;4.07;;;;;;;;;;6241787;23;20265;-85
2023/12/04 12:57:18;;;;;;;4.67;4.20;;;;;;;;;;6242025;23;20188;-83
2023/12/04 12:59:50;;;;;;;5.80;4.07;;;;;;;;;;6242416;23;20177;-86
2023/12/04 13:02:23;;;;;;;7.30;4.50;;;;;;;;;;6242368;23;20232;-84
2023/12/04 13:04:54;;;;;;;4.87;4.17;;;;;;;;;;6243575;23;20217;-81
2023/12/04 13:07:23;;;;;;;5.63;4.63;;;;;;;;;;6240399;23;20224;-84
2023/12/04 13:09:53;;;;;;;4.67;4.27;;;;;;;;;;6240400;23;20169;-83
2023/12/04 13:12:21;;;;;;;9.43;5.70;;;;;;;;;;6240491;22;20170;-82
2023/12/04 13:14:50;;;;;;;7.93;4.80;;;;;;;;;;6239963;23;20176;-84
2023/12/04 13:17:19;;;;;;;8.17;4.20;;;;;;;;;;6241218;23;20170;-83
2023/12/04 13:19:49;;;;;;;7.80;6.17;;;;;;;;;;6240186;23;20223;-84
2023/12/04 13:22:19;;;;;;;5.57;4.73;;;;;;;;;;6244117;23;20213;-83
2023/12/04 13:24:48;;;;;;;5.37;3.97;;;;;;;;;;6241725;23;20264;-84
2023/12/04 13:27:16;;;;;;;10.23;5.93;;;;;;;;;;6240847;23;20169;-84
2023/12/04 13:32:59;;;;;;;8.03;4.63;;;;;;;;;;6240851;22;20238;-83
2023/12/04 13:35:31;;;;;;;5.97;4.40;;;;;;;;;;6242222;22;20178;-83
2023/12/04 13:38:01;;;;;;;6.07;4.37;;;;;;;;;;6241302;23;20174;-83
2023/12/04 13:40:32;;;;;;;6.40;4.57;;;;;;;;;;6241846;23;20184;-84
2023/12/04 13:45:47;;;;;;;5.40;3.30;;;;;;;;;;6240420;23;20176;-83
2023/12/04 13:48:16;;;;;;;10.43;6.43;;;;;;;;;;6240701;23;20176;-84
2023/12/04 13:50:51;;;;;;;6.13;5.43;;;;;;;;;;6242251;23;20181;-85
2023/12/04 13:53:25;;;;;;;7.67;5.70;;;;;;;;;;6243355;23;20181;-83
2023/12/04 13:56:23;;;;;;;7.87;7.07;;;;;;;;;;6241358;22;20181;-83
2023/12/04 13:58:57;;;;;;;6.77;5.73;;;;;;;;;;6240359;23;20265;-82
2023/12/04 14:01:28;;;;;;;7.80;5.40;;;;;;;;;;6240502;23;20207;-82
2023/12/04 14:04:01;;;;;;;6.47;4.93;;;;;;;;;;6241076;23;20209;-82
2023/12/04 14:06:34;;;;;;;6.57;5.87;;;;;;;;;;6240727;23;20239;-84
2023/12/04 14:09:04;;;;;;;4.10;3.53;;;;;;;;;;6240082;23;20177;-85
2023/12/04 14:11:39;;;;;;;6.43;5.83;;;;;;;;;;6241329;23;20170;-83
2023/12/04 14:14:08;;;;;;;7.80;6.83;;;;;;;;;;6239990;23;20177;-83
2023/12/04 14:16:37;;;;;;;9.50;7.33;;;;;;;;;;6241006;23;20224;-83
2023/12/04 14:19:09;;;;;;;8.63;6.33;;;;;;;;;;6240447;23;20177;-84
2023/12/04 14:21:39;;;;;;;5.30;4.80;;;;;;;;;;6241626;23;20193;-85
2023/12/04 14:24:10;;;;;;;6.40;5.33;;;;;;;;;;6240542;23;20227;-83
2023/12/04 14:26:53;;;;;;;7.37;5.97;;;;;;;;;;6240573;23;20170;-83
2023/12/04 14:29:21;;;;;;;6.07;5.50;;;;;;;;;;6241747;22;20235;-83
2023/12/04 14:31:50;;;;;;;8.67;7.17;;;;;;;;;;6242852;23;20192;-83
2023/12/04 14:34:19;;;;;;;7.37;6.33;;;;;;;;;;6241638;23;20218;-82
2023/12/04 14:36:49;;;;;;;7.20;5.67;;;;;;;;;;6241716;23;20229;-84
2023/12/04 14:39:18;;;;;;;9.53;6.70;;;;;;;;;;6241764;23;20206;-83
2023/12/04 14:41:47;;;;;;;8.60;6.77;;;;;;;;;;6242283;23;20279;-83
2023/12/04 14:44:18;;;;;;;9.60;6.37;;;;;;;;;;6240575;23;20192;-84
2023/12/04 14:46:47;;;;;;;11.13;7.83;;;;;;;;;;6241468;23;20181;-84
2023/12/04 14:49:16;;;;;;;9.17;7.87;;;;;;;;;;6241263;23;20235;-84
2023/12/04 14:51:48;;;;;;;8.77;6.67;;;;;;;;;;6241229;22;20169;-84
2023/12/04 14:54:35;;;;;;;8.30;6.27;;;;;;;;;;6240485;23;20180;-84
2023/12/04 14:57:49;;;;;;;9.33;6.37;;;;;;;;;;6241257;23;20287;-83
2023/12/04 15:06:32;;;;;;;8.27;5.13;;;;;;;;;;6202500;23;20247;-83
2023/12/04 15:12:21;;;;;;;8.90;6.00;;;;;;;;;;6149547;23;20168;-84
2023/12/04 15:14:54;;;;;;;7.60;5.67;;;;;;;;;;6233214;23;20177;-84